Time;durP1;ratioP1;P1;durP2;ratioP2;P2;SDS_P1;SDS_P2;PMS_P1;PMS_P2;Temp;Humidity;BMP_temperature;BMP_pressure;BME280_temperature;BME280_humidity;BME280_pressure;Samples;Min_cycle;Max_cycle;Signal;HPM_P1;HPM_P2
2022/08/14 00:00:57;;;;;;;0.77;0.67;;;24.40;99.90;;;;;;5031892;28;20206;-94
2022/08/14 00:03:33;;;;;;;1.03;0.60;;;24.40;99.90;;;;;;5029759;28;20225;-93
2022/08/14 00:06:05;;;;;;;0.50;0.50;;;24.80;99.90;;;;;;5023752;28;20279;-93
2022/08/14 00:08:55;;;;;;;0.67;0.67;;;25.40;99.90;;;;;;5019081;28;20699;-94
2022/08/14 00:11:30;;;;;;;1.33;0.90;;;25.90;99.90;;;;;;5018074;28;20223;-94
2022/08/14 00:14:03;;;;;;;0.60;0.60;;;26.20;99.90;;;;;;5027353;28;20244;-94
2022/08/14 00:16:37;;;;;;;0.50;0.50;;;26.40;99.90;;;;;;5029620;28;20245;-94
2022/08/14 00:21:54;;;;;;;0.70;0.70;;;26.40;99.90;;;;;;5051201;23;20248;-93
2022/08/14 00:24:26;;;;;;;0.90;0.90;;;26.40;99.90;;;;;;5018867;28;20599;-94
2022/08/14 00:27:02;;;;;;;0.90;0.70;;;26.30;99.90;;;;;;5019664;28;20236;-93
2022/08/14 00:29:43;;;;;;;0.80;0.80;;;26.40;99.90;;;;;;5022330;28;20205;-94
2022/08/14 00:32:20;;;;;;;2.07;1.00;;;26.80;99.90;;;;;;5069594;23;20237;-94
2022/08/14 00:35:14;;;;;;;0.77;0.70;;;26.70;99.90;;;;;;5052880;28;20209;-95
2022/08/14 00:45:52;;;;;;;1.00;0.80;;;26.00;99.90;;;;;;5034286;28;20232;-93
2022/08/14 00:48:25;;;;;;;0.80;0.80;;;26.10;99.90;;;;;;5037055;28;20186;-93
2022/08/14 00:51:16;;;;;;;1.00;0.90;;;25.50;99.90;;;;;;5034845;28;20213;-94
2022/08/14 01:12:40;;;;;;;0.73;0.73;;;24.40;99.90;;;;;;5026439;28;20213;-95
2022/08/14 01:15:12;;;;;;;1.50;0.90;;;24.70;99.90;;;;;;5031050;28;20208;-95
2022/08/14 01:23:36;;;;;;;0.80;0.80;;;26.20;99.90;;;;;;5011077;28;20213;-92
2022/08/14 01:26:19;;;;;;;1.87;0.90;;;26.70;99.90;;;;;;5031606;28;20229;-94
2022/08/14 01:29:07;;;;;;;1.23;1.00;;;26.60;99.90;;;;;;5032204;28;20566;-93
2022/08/14 01:31:46;;;;;;;2.20;1.37;;;27.00;99.90;;;;;;5030136;28;20209;-92
2022/08/14 01:34:24;;;;;;;1.70;0.97;;;27.20;99.90;;;;;;5027739;28;20233;-94
2022/08/14 01:37:19;;;;;;;1.10;1.00;;;27.60;99.90;;;;;;5030825;28;20349;-95
2022/08/14 01:40:00;;;;;;;1.40;1.20;;;27.50;99.90;;;;;;5028342;28;20189;-95
2022/08/14 01:42:33;;;;;;;1.90;1.07;;;27.40;99.90;;;;;;5028789;28;20252;-95
2022/08/14 01:45:14;;;;;;;1.30;1.10;;;27.30;99.90;;;;;;5029071;28;20216;-95
2022/08/14 01:48:00;;;;;;;2.57;1.23;;;27.30;99.90;;;;;;5025576;28;20220;-95
2022/08/14 01:50:33;;;;;;;2.30;1.10;;;27.50;99.90;;;;;;5030027;28;20204;-95
2022/08/14 01:53:30;;;;;;;0.80;0.80;;;26.70;99.90;;;;;;5030905;28;20213;-95
2022/08/14 01:56:19;;;;;;;1.50;1.00;;;26.50;99.90;;;;;;5031526;28;20201;-95
2022/08/14 01:58:53;;;;;;;1.57;1.00;;;26.50;99.90;;;;;;5029140;28;20209;-96
2022/08/14 02:01:42;;;;;;;1.50;1.00;;;26.20;99.90;;;;;;5030704;28;20251;-94
2022/08/14 02:07:31;;;;;;;2.00;1.00;;;25.00;99.90;;;;;;5029611;28;20249;-95
2022/08/14 02:10:27;;;;;;;1.40;1.00;;;24.40;99.90;;;;;;5030099;28;20210;-94
2022/08/14 02:13:07;;;;;;;2.20;1.40;;;23.90;99.90;;;;;;5029811;28;20205;-94
2022/08/14 02:18:29;;;;;;;2.67;1.30;;;23.30;99.90;;;;;;5030282;28;20267;-95
2022/08/14 02:21:03;;;;;;;1.40;1.30;;;23.20;99.90;;;;;;5027710;28;20206;-95
2022/08/14 02:23:37;;;;;;;1.63;1.33;;;23.00;99.90;;;;;;5008741;28;20210;-94
2022/08/14 02:26:21;;;;;;;1.10;1.00;;;22.90;99.90;;;;;;5006814;28;20752;-96
2022/08/14 02:29:04;;;;;;;1.40;1.30;;;22.70;99.90;;;;;;5013686;28;20210;-94
2022/08/14 02:31:44;;;;;;;2.23;1.10;;;22.60;99.90;;;;;;5013984;28;20677;-95
2022/08/14 02:34:31;;;;;;;1.77;1.27;;;22.60;99.90;;;;;;5014210;28;20215;-95
2022/08/14 02:37:08;;;;;;;1.20;1.10;;;22.50;99.90;;;;;;5007940;28;20748;-95
2022/08/14 02:39:43;;;;;;;1.00;1.00;;;22.50;99.90;;;;;;5005738;28;20210;-95
2022/08/14 02:42:31;;;;;;;1.23;1.13;;;22.30;99.90;;;;;;5013376;28;20269;-94
2022/08/14 02:48:15;;;;;;;2.50;1.30;;;22.20;99.90;;;;;;5028294;28;20233;-95
2022/08/14 02:51:11;;;;;;;1.33;1.13;;;22.20;99.90;;;;;;5027688;28;20260;-96
2022/08/14 02:53:57;;;;;;;1.60;1.20;;;22.00;99.90;;;;;;5029755;28;20216;-96
2022/08/14 02:56:37;;;;;;;2.17;1.50;;;22.10;99.90;;;;;;5024432;28;20213;-96
2022/08/14 02:59:32;;;;;;;1.30;1.20;;;22.00;99.90;;;;;;5018977;28;20206;-95
2022/08/14 03:02:07;;;;;;;1.80;1.20;;;21.90;99.90;;;;;;5020297;28;20205;-96
2022/08/14 03:04:59;;;;;;;3.43;1.57;;;21.90;99.90;;;;;;5030278;28;20644;-96
2022/08/14 03:07:30;;;;;;;3.00;1.40;;;21.70;99.90;;;;;;5020516;28;20241;-95
2022/08/14 03:10:05;;;;;;;1.77;1.33;;;21.60;99.90;;;;;;5022779;28;20208;-96
2022/08/14 03:12:57;;;;;;;2.07;1.30;;;21.50;99.90;;;;;;5023163;28;20675;-95
2022/08/14 03:18:17;;;;;;;1.67;1.30;;;21.30;99.90;;;;;;5021855;28;20224;-96
2022/08/14 03:21:03;;;;;;;5.00;1.20;;;21.20;99.90;;;;;;5015906;28;20589;-96
2022/08/14 03:23:45;;;;;;;2.20;1.20;;;21.10;99.90;;;;;;5001982;28;20233;-96
2022/08/14 03:26:27;;;;;;;1.63;1.47;;;20.90;99.90;;;;;;5008962;28;20558;-95
2022/08/14 03:29:09;;;;;;;2.07;1.60;;;20.80;99.90;;;;;;5014866;28;20213;-95
2022/08/14 03:34:40;;;;;;;2.73;1.67;;;20.70;99.90;;;;;;5009951;28;20210;-95
2022/08/14 03:37:25;;;;;;;4.10;1.60;;;20.50;99.90;;;;;;5007888;28;20263;-96
2022/08/14 03:40:19;;;;;;;2.27;1.60;;;20.40;99.90;;;;;;5008834;28;20253;-95
2022/08/14 03:42:54;;;;;;;2.13;1.90;;;20.30;99.90;;;;;;5015317;28;20230;-95
2022/08/14 03:45:26;;;;;;;2.20;1.93;;;20.30;99.90;;;;;;5006717;28;20288;-95
2022/08/14 03:48:05;;;;;;;3.17;1.67;;;20.10;99.90;;;;;;5006454;28;20234;-95
2022/08/14 03:50:59;;;;;;;2.07;1.63;;;20.10;99.90;;;;;;5019401;28;20194;-96
2022/08/14 03:53:38;;;;;;;3.20;1.90;;;20.10;99.90;;;;;;5018955;28;20214;-95
2022/08/14 03:56:20;;;;;;;1.90;1.77;;;19.90;99.90;;;;;;5019787;28;20206;-96
2022/08/14 04:01:40;;;;;;;2.37;1.87;;;19.80;99.90;;;;;;5206822;23;20242;-95
2022/08/14 04:04:22;;;;;;;3.37;1.70;;;19.70;99.90;;;;;;4982132;28;20277;-94
2022/08/14 04:06:58;;;;;;;4.87;2.10;;;19.70;99.90;;;;;;4982590;28;20258;-94
2022/08/14 04:09:30;;;;;;;1.90;1.63;;;19.60;99.90;;;;;;4981684;28;20278;-95
2022/08/14 04:12:20;;;;;;;2.97;2.10;;;19.60;99.90;;;;;;4986549;28;20274;-96
2022/08/14 04:14:56;;;;;;;2.67;1.80;;;19.50;99.90;;;;;;4981454;28;20211;-95
2022/08/14 04:17:28;;;;;;;2.93;1.97;;;19.50;99.90;;;;;;4979658;28;20222;-96
2022/08/14 04:20:06;;;;;;;3.27;2.17;;;19.40;99.90;;;;;;4980547;28;20217;-95
2022/08/14 04:22:41;;;;;;;2.40;1.90;;;19.50;99.90;;;;;;4979554;28;20222;-96
2022/08/14 04:25:13;;;;;;;2.40;1.90;;;19.40;99.90;;;;;;4980938;28;20221;-96
2022/08/14 04:27:44;;;;;;;2.90;2.20;;;19.40;99.90;;;;;;4982277;28;20234;-96
2022/08/14 04:30:37;;;;;;;4.07;1.80;;;19.30;99.90;;;;;;4981117;28;20226;-96
2022/08/14 04:33:13;;;;;;;2.23;2.03;;;19.30;99.90;;;;;;4982612;28;20219;-96
2022/08/14 04:35:51;;;;;;;2.83;1.67;;;19.20;99.90;;;;;;4982658;28;20310;-96
2022/08/14 04:44:15;;;;;;;2.70;1.67;;;19.00;99.90;;;;;;4983954;28;20207;-96
2022/08/14 04:49:53;;;;;;;2.13;1.50;;;18.90;99.90;;;;;;4987587;28;20213;-96
2022/08/14 04:52:36;;;;;;;1.73;1.50;;;18.80;99.90;;;;;;4987182;28;20209;-96
2022/08/14 04:55:15;;;;;;;2.30;1.37;;;18.80;99.90;;;;;;4984016;28;20211;-96
2022/08/14 04:57:47;;;;;;;1.67;1.50;;;18.70;99.90;;;;;;4979220;28;20211;-96
2022/08/14 05:00:19;;;;;;;2.03;1.40;;;18.70;99.90;;;;;;4982023;28;20218;-96
2022/08/14 05:02:55;;;;;;;1.90;1.20;;;18.60;99.90;;;;;;4980799;28;20233;-96
2022/08/14 05:05:32;;;;;;;4.00;1.53;;;18.60;99.90;;;;;;4979870;28;20633;-96
2022/08/14 05:08:11;;;;;;;2.40;1.40;;;18.50;99.90;;;;;;4978713;28;20313;-96
2022/08/14 05:11:09;;;;;;;2.03;1.10;;;18.50;99.90;;;;;;4979956;28;20246;-96
2022/08/14 05:13:42;;;;;;;1.50;1.40;;;18.40;99.90;;;;;;4984791;28;20266;-96
2022/08/14 05:16:34;;;;;;;2.53;1.27;;;18.30;99.90;;;;;;4984240;28;20203;-96
2022/08/14 05:19:07;;;;;;;3.67;1.10;;;18.30;99.90;;;;;;4987294;28;20218;-96
2022/08/14 05:21:59;;;;;;;1.80;1.53;;;18.30;99.90;;;;;;4977824;28;20211;-96
2022/08/14 05:24:50;;;;;;;1.40;1.23;;;18.20;99.90;;;;;;4978806;28;20281;-96
2022/08/14 05:30:18;;;;;;;2.90;1.30;;;18.10;99.90;;;;;;4987689;28;20215;-95
2022/08/14 05:32:50;;;;;;;2.73;1.30;;;18.10;99.90;;;;;;4980430;28;20275;-96
2022/08/14 05:35:21;;;;;;;1.33;1.10;;;18.10;99.90;;;;;;4978654;28;20214;-96
2022/08/14 05:37:53;;;;;;;1.37;1.27;;;18.00;99.90;;;;;;4980223;28;20243;-96
2022/08/14 05:40:26;;;;;;;1.30;1.10;;;17.90;99.90;;;;;;4988956;28;20259;-96
2022/08/14 05:42:59;;;;;;;1.53;1.30;;;17.90;99.90;;;;;;4996368;28;20195;-96
2022/08/14 05:45:36;;;;;;;1.10;1.00;;;17.90;99.90;;;;;;4997613;28;20244;-96
2022/08/14 05:48:08;;;;;;;1.27;1.17;;;17.80;99.90;;;;;;4997530;28;20215;-96
2022/08/14 05:50:53;;;;;;;2.27;1.43;;;17.80;99.90;;;;;;4997153;28;20230;-96
2022/08/14 05:53:25;;;;;;;1.37;1.20;;;17.70;99.90;;;;;;4998270;28;20218;-95
2022/08/14 05:56:03;;;;;;;1.57;1.40;;;17.70;99.90;;;;;;5001458;28;20213;-95
2022/08/14 05:58:37;;;;;;;1.47;1.30;;;17.60;99.90;;;;;;5001373;28;20240;-95
2022/08/14 06:01:11;;;;;;;1.57;1.33;;;17.60;99.90;;;;;;5000408;28;20214;-96
2022/08/14 06:03:43;;;;;;;1.70;1.37;;;17.60;99.90;;;;;;4994313;28;20289;-96
2022/08/14 06:06:18;;;;;;;2.03;1.63;;;17.60;99.90;;;;;;4983329;28;20293;-96
2022/08/14 06:08:50;;;;;;;1.33;1.20;;;17.50;99.90;;;;;;4985959;28;20230;-96
2022/08/14 06:11:22;;;;;;;2.30;1.20;;;17.50;99.90;;;;;;4981530;28;20211;-95
2022/08/14 06:14:01;;;;;;;1.30;1.13;;;17.50;99.90;;;;;;4982537;28;20284;-96
2022/08/14 06:16:43;;;;;;;3.00;1.50;;;17.40;99.90;;;;;;4987366;28;20293;-96
2022/08/14 06:19:17;;;;;;;2.83;1.60;;;17.40;99.90;;;;;;4985034;28;20250;-96
2022/08/14 06:21:52;;;;;;;1.43;1.27;;;17.40;99.90;;;;;;4986958;28;20209;-95
2022/08/14 06:24:28;;;;;;;2.37;1.23;;;17.40;99.90;;;;;;4981944;28;20207;-96
2022/08/14 06:27:05;;;;;;;1.40;1.30;;;17.30;99.90;;;;;;4981780;28;20234;-96
2022/08/14 06:29:41;;;;;;;1.70;1.47;;;17.30;99.90;;;;;;4966028;28;20325;-96
2022/08/14 06:32:14;;;;;;;1.90;1.40;;;17.20;99.90;;;;;;4980934;28;20632;-96
2022/08/14 06:35:08;;;;;;;2.40;1.40;;;17.20;99.90;;;;;;4980812;28;20207;-94
2022/08/14 06:37:47;;;;;;;1.77;1.33;;;17.20;99.90;;;;;;4981363;28;20254;-94
2022/08/14 06:40:20;;;;;;;3.03;1.60;;;17.10;99.90;;;;;;4981149;28;20233;-94
2022/08/14 06:42:58;;;;;;;1.93;1.53;;;17.10;99.90;;;;;;4982867;28;20325;-94
2022/08/14 06:45:35;;;;;;;1.57;1.40;;;17.10;99.90;;;;;;4981043;28;20230;-94
2022/08/14 06:48:15;;;;;;;3.40;1.50;;;17.00;99.90;;;;;;4980796;28;20210;-94
2022/08/14 06:50:47;;;;;;;2.30;1.60;;;17.00;99.90;;;;;;4981308;28;20217;-94
2022/08/14 06:53:18;;;;;;;1.53;1.20;;;17.00;99.90;;;;;;4980188;28;20231;-94
2022/08/14 06:55:50;;;;;;;1.77;1.63;;;17.00;99.90;;;;;;4980233;28;20203;-95
2022/08/14 06:58:31;;;;;;;3.17;1.47;;;17.00;99.90;;;;;;4965371;28;20633;-94
2022/08/14 07:07:04;;;;;;;2.30;1.60;;;16.90;99.90;;;;;;4988238;28;20230;-95
2022/08/14 07:09:36;;;;;;;2.10;1.43;;;16.80;99.90;;;;;;4981666;28;20230;-94
2022/08/14 07:12:20;;;;;;;1.67;1.40;;;16.80;99.90;;;;;;4980386;28;20586;-94
2022/08/14 07:15:12;;;;;;;2.27;1.50;;;16.70;99.90;;;;;;4986079;28;20251;-95
2022/08/14 07:17:51;;;;;;;1.73;1.60;;;16.70;99.90;;;;;;4980399;28;20251;-94
2022/08/14 07:20:27;;;;;;;2.10;1.53;;;16.60;99.90;;;;;;4981538;28;20665;-94
2022/08/14 07:23:01;;;;;;;2.13;1.37;;;16.60;99.90;;;;;;4979701;28;20264;-94
2022/08/14 07:25:40;;;;;;;2.33;1.30;;;16.60;99.90;;;;;;4980297;28;20262;-95
2022/08/14 07:28:15;;;;;;;1.60;1.50;;;16.60;99.90;;;;;;4978929;28;20222;-94
2022/08/14 07:30:51;;;;;;;1.87;1.50;;;16.50;99.90;;;;;;4980316;28;20279;-94
2022/08/14 07:33:24;;;;;;;1.73;1.40;;;16.50;99.90;;;;;;4979086;28;20234;-94
2022/08/14 07:36:01;;;;;;;1.80;1.53;;;16.40;99.90;;;;;;4981090;28;20206;-94
2022/08/14 07:38:52;;;;;;;3.20;1.70;;;16.40;99.90;;;;;;4980679;28;20211;-94
2022/08/14 07:41:25;;;;;;;2.87;1.90;;;16.40;99.90;;;;;;4983418;28;20230;-93
2022/08/14 07:44:03;;;;;;;3.33;1.90;;;16.30;99.90;;;;;;4983020;28;20210;-95
2022/08/14 07:46:55;;;;;;;1.60;1.50;;;16.30;99.90;;;;;;4983623;28;20271;-94
2022/08/14 07:49:29;;;;;;;1.87;1.70;;;16.30;99.90;;;;;;4980327;28;20274;-95
2022/08/14 07:52:01;;;;;;;3.10;1.70;;;16.30;99.90;;;;;;4978641;28;20269;-95
2022/08/14 07:54:36;;;;;;;2.47;1.63;;;16.30;99.90;;;;;;4979772;28;20211;-94
2022/08/14 07:57:09;;;;;;;3.40;1.50;;;16.20;99.90;;;;;;4979982;28;20242;-95
2022/08/14 07:59:51;;;;;;;2.40;1.90;;;16.20;99.90;;;;;;4979879;28;20213;-94
2022/08/14 08:02:23;;;;;;;2.33;2.03;;;16.20;99.90;;;;;;4978771;28;20230;-93
2022/08/14 08:04:58;;;;;;;2.53;2.00;;;16.20;99.90;;;;;;4979339;28;20202;-94
2022/08/14 08:07:32;;;;;;;2.67;1.80;;;16.10;99.90;;;;;;4979451;28;20245;-94
2022/08/14 08:13:17;;;;;;;2.63;1.73;;;16.10;99.90;;;;;;4978925;28;20642;-95
2022/08/14 08:15:56;;;;;;;2.20;1.70;;;16.00;99.90;;;;;;4980576;28;20229;-94
2022/08/14 08:18:28;;;;;;;4.40;2.00;;;16.00;99.90;;;;;;4985281;28;20216;-95
2022/08/14 08:21:02;;;;;;;2.87;1.70;;;15.90;99.90;;;;;;4981136;28;20235;-95
2022/08/14 08:23:34;;;;;;;2.07;1.80;;;15.90;99.90;;;;;;4981317;28;20211;-94
2022/08/14 08:26:14;;;;;;;2.07;1.90;;;15.80;99.90;;;;;;4982589;28;20213;-94
2022/08/14 08:28:56;;;;;;;2.63;1.90;;;15.80;99.90;;;;;;4982151;28;20214;-94
2022/08/14 08:31:49;;;;;;;2.50;2.10;;;15.80;99.90;;;;;;5041792;28;20304;-95
2022/08/14 08:34:21;;;;;;;4.10;2.27;;;15.80;99.90;;;;;;5037753;28;20208;-95
2022/08/14 08:36:55;;;;;;;2.73;1.83;;;15.80;99.90;;;;;;5040236;28;20221;-94
2022/08/14 08:39:26;;;;;;;4.20;1.90;;;15.80;99.90;;;;;;5041674;28;20259;-95
2022/08/14 08:42:27;;;;;;;3.90;2.00;;;15.80;99.90;;;;;;5019560;28;20689;-95
2022/08/14 08:45:11;;;;;;;2.40;2.03;;;15.80;99.90;;;;;;5022849;28;20210;-95
2022/08/14 08:47:43;;;;;;;2.90;2.30;;;15.80;99.90;;;;;;5037240;28;20258;-95
2022/08/14 08:50:21;;;;;;;3.00;2.27;;;15.80;99.90;;;;;;5037077;28;20332;-94
2022/08/14 08:53:03;;;;;;;2.40;2.20;;;15.80;99.90;;;;;;5035513;28;20257;-95
2022/08/14 08:55:37;;;;;;;4.57;2.70;;;15.70;99.90;;;;;;5037017;28;20208;-93
2022/08/14 08:58:10;;;;;;;5.23;2.53;;;15.70;99.90;;;;;;5019841;28;20205;-94
2022/08/14 09:00:51;;;;;;;3.80;2.67;;;15.70;99.90;;;;;;5019598;28;20213;-95
2022/08/14 09:03:25;;;;;;;3.20;2.37;;;15.60;99.90;;;;;;5021620;28;20247;-94
2022/08/14 09:06:00;;;;;;;3.73;2.43;;;15.50;99.90;;;;;;5020003;28;20300;-94
2022/08/14 09:08:34;;;;;;;2.50;2.30;;;15.50;99.90;;;;;;5019742;28;20948;-94
2022/08/14 09:11:11;;;;;;;4.47;2.60;;;15.50;99.90;;;;;;5022389;28;20231;-94
2022/08/14 09:13:52;;;;;;;3.63;2.07;;;15.50;99.90;;;;;;5018145;28;20216;-95
2022/08/14 09:16:25;;;;;;;3.40;2.03;;;15.40;99.90;;;;;;5017204;28;20206;-95
2022/08/14 09:18:56;;;;;;;4.27;2.30;;;15.30;99.90;;;;;;5019330;28;20248;-95
2022/08/14 09:21:28;;;;;;;2.43;2.20;;;15.30;99.90;;;;;;5016325;28;20587;-95
2022/08/14 09:24:03;;;;;;;2.53;2.33;;;15.30;99.90;;;;;;5019299;28;20205;-95
2022/08/14 09:26:54;;;;;;;4.37;2.33;;;15.20;99.90;;;;;;5020690;28;20237;-95
2022/08/14 09:29:25;;;;;;;2.87;2.30;;;15.20;99.90;;;;;;5020736;28;20206;-94
2022/08/14 09:32:01;;;;;;;2.53;2.20;;;15.20;99.90;;;;;;5015419;28;20691;-95
2022/08/14 09:35:04;;;;;;;3.43;2.47;;;15.30;99.90;;;;;;5016607;28;20292;-95
2022/08/14 09:37:48;;;;;;;2.73;2.53;;;15.20;99.90;;;;;;5016562;28;20296;-95
2022/08/14 09:40:37;;;;;;;3.10;2.03;;;15.20;99.90;;;;;;5022311;28;20245;-95
2022/08/14 09:43:31;;;;;;;3.17;2.40;;;15.10;99.90;;;;;;5020713;28;20213;-95
2022/08/14 09:46:09;;;;;;;2.80;2.33;;;15.10;99.90;;;;;;5020910;28;20202;-96
2022/08/14 09:48:47;;;;;;;2.73;2.13;;;15.10;99.90;;;;;;5016669;28;20247;-95
2022/08/14 09:51:24;;;;;;;2.93;2.03;;;15.10;99.90;;;;;;5015488;28;20255;-95
2022/08/14 09:54:12;;;;;;;4.27;2.47;;;15.10;99.90;;;;;;5018307;28;20210;-94
2022/08/14 09:56:55;;;;;;;2.83;2.53;;;15.10;99.90;;;;;;5017754;28;20209;-95
2022/08/14 09:59:30;;;;;;;3.40;2.10;;;15.00;99.90;;;;;;5018350;28;20291;-95
2022/08/14 10:02:05;;;;;;;3.23;2.00;;;15.00;99.90;;;;;;5018154;28;20205;-95
2022/08/14 10:04:38;;;;;;;3.37;2.60;;;15.00;99.90;;;;;;5021425;28;20240;-95
2022/08/14 10:07:19;;;;;;;3.47;2.37;;;14.90;99.90;;;;;;5018262;28;20763;-95
2022/08/14 10:09:51;;;;;;;2.37;2.17;;;14.90;99.90;;;;;;5021005;28;20206;-93
2022/08/14 10:12:49;;;;;;;2.73;2.40;;;14.90;99.90;;;;;;5015640;28;20231;-94
2022/08/14 10:15:28;;;;;;;2.90;2.47;;;14.80;99.90;;;;;;5019595;28;20576;-95
2022/08/14 10:18:11;;;;;;;3.27;2.30;;;14.70;99.90;;;;;;5017425;28;20210;-96
2022/08/14 10:20:56;;;;;;;2.67;2.20;;;14.70;99.90;;;;;;5018739;28;20296;-94
2022/08/14 10:23:42;;;;;;;2.67;2.47;;;14.60;99.90;;;;;;5020206;28;20668;-95
2022/08/14 10:26:18;;;;;;;2.67;2.30;;;14.60;99.90;;;;;;5017099;28;20679;-94
2022/08/14 10:29:09;;;;;;;2.63;2.20;;;14.60;99.90;;;;;;5017043;28;20209;-93
2022/08/14 10:32:00;;;;;;;2.93;2.30;;;14.60;99.90;;;;;;5018676;28;20332;-94
2022/08/14 10:34:48;;;;;;;3.10;2.43;;;14.60;99.90;;;;;;5019958;28;20216;-94
2022/08/14 10:37:22;;;;;;;4.03;2.50;;;14.60;99.90;;;;;;5019921;28;20221;-94
2022/08/14 10:40:02;;;;;;;3.60;2.40;;;14.50;99.90;;;;;;5022115;28;20258;-94
2022/08/14 10:42:41;;;;;;;2.17;1.93;;;14.60;99.90;;;;;;5023884;28;20222;-95
2022/08/14 10:45:24;;;;;;;3.50;2.23;;;14.60;99.90;;;;;;5022280;28;20240;-94
2022/08/14 10:47:57;;;;;;;2.63;2.37;;;14.60;99.90;;;;;;5023602;28;20214;-93
2022/08/14 10:50:49;;;;;;;2.50;2.10;;;14.50;99.90;;;;;;5022102;28;20617;-95
2022/08/14 10:53:31;;;;;;;3.70;2.40;;;14.50;99.90;;;;;;5021267;28;20213;-94
2022/08/14 10:56:06;;;;;;;4.33;2.13;;;14.50;99.90;;;;;;5021998;28;20237;-95
2022/08/14 10:59:01;;;;;;;3.27;2.30;;;14.50;99.90;;;;;;5022252;28;20212;-95
2022/08/14 11:01:37;;;;;;;2.50;2.30;;;14.50;99.90;;;;;;5020547;28;20210;-94
2022/08/14 11:04:22;;;;;;;2.77;2.43;;;14.60;99.90;;;;;;5020979;28;20697;-95
2022/08/14 11:06:57;;;;;;;2.33;2.13;;;14.50;99.90;;;;;;5022837;28;20214;-95
2022/08/14 11:09:28;;;;;;;2.60;2.23;;;14.50;99.90;;;;;;5021573;28;20651;-95
2022/08/14 11:12:02;;;;;;;2.27;2.07;;;14.50;99.90;;;;;;5024448;28;20237;-95
2022/08/14 11:14:58;;;;;;;4.57;2.00;;;14.40;99.90;;;;;;5023454;28;20300;-95
2022/08/14 11:17:35;;;;;;;4.13;2.40;;;14.40;99.90;;;;;;5021040;28;20209;-95
2022/08/14 11:20:10;;;;;;;3.23;2.20;;;14.40;99.90;;;;;;5023358;28;20192;-95
2022/08/14 11:22:43;;;;;;;4.60;2.23;;;14.30;99.90;;;;;;5021606;28;20216;-94
2022/08/14 11:25:28;;;;;;;4.00;2.20;;;14.30;99.90;;;;;;5020086;28;20687;-95
2022/08/14 11:28:15;;;;;;;2.80;2.30;;;14.20;99.90;;;;;;5022072;28;20656;-95
2022/08/14 11:30:51;;;;;;;2.57;2.33;;;14.30;99.90;;;;;;5020329;28;20374;-94
2022/08/14 11:33:29;;;;;;;3.37;2.20;;;14.30;99.90;;;;;;5024928;28;20232;-94
2022/08/14 11:36:04;;;;;;;3.87;2.43;;;14.20;99.90;;;;;;5022329;28;20278;-95
2022/08/14 11:38:49;;;;;;;4.60;2.10;;;14.30;99.90;;;;;;5018452;28;20260;-94
2022/08/14 11:41:25;;;;;;;3.90;2.13;;;14.30;99.90;;;;;;5018346;28;20239;-94
2022/08/14 11:43:58;;;;;;;2.33;1.90;;;14.30;99.90;;;;;;5018642;28;20639;-95
2022/08/14 11:46:34;;;;;;;5.03;2.20;;;14.30;99.90;;;;;;5019489;28;20275;-95
2022/08/14 11:49:10;;;;;;;2.77;2.13;;;14.30;99.90;;;;;;5019026;28;20241;-94
2022/08/14 11:51:54;;;;;;;3.00;2.20;;;14.30;99.90;;;;;;5019336;28;20649;-95
2022/08/14 11:54:29;;;;;;;2.10;1.90;;;14.30;99.90;;;;;;5018404;28;20213;-95
2022/08/14 11:57:05;;;;;;;2.60;1.93;;;14.30;99.90;;;;;;5019025;28;20214;-94
2022/08/14 11:59:39;;;;;;;3.30;2.60;;;14.30;99.90;;;;;;5021216;28;20205;-94
2022/08/14 12:02:18;;;;;;;2.20;2.00;;;14.30;99.90;;;;;;5017843;28;20213;-94
2022/08/14 12:05:13;;;;;;;2.87;2.20;;;14.30;99.90;;;;;;5018823;28;20558;-94
2022/08/14 12:07:51;;;;;;;2.83;2.27;;;14.20;99.90;;;;;;5018347;28;20223;-94
2022/08/14 12:10:22;;;;;;;4.63;2.30;;;14.20;99.90;;;;;;5018891;28;20206;-95
2022/08/14 12:13:14;;;;;;;3.80;2.67;;;14.20;99.90;;;;;;5018071;28;20679;-95
2022/08/14 12:15:48;;;;;;;6.20;2.43;;;14.20;99.90;;;;;;5018509;28;20273;-94
2022/08/14 12:18:33;;;;;;;2.67;2.00;;;14.20;99.90;;;;;;5020097;28;20209;-94
2022/08/14 12:21:18;;;;;;;3.27;2.30;;;14.20;99.90;;;;;;5021011;28;20667;-94
2022/08/14 12:24:06;;;;;;;8.20;2.67;;;14.20;99.90;;;;;;5018087;28;20217;-94
2022/08/14 12:26:58;;;;;;;3.07;2.23;;;14.20;99.90;;;;;;5018112;28;20209;-94
2022/08/14 12:29:30;;;;;;;4.57;2.30;;;14.10;99.90;;;;;;5017571;28;20209;-95
2022/08/14 12:32:06;;;;;;;3.20;2.33;;;14.10;99.90;;;;;;5016694;28;20287;-95
2022/08/14 12:34:42;;;;;;;2.50;2.20;;;14.10;99.90;;;;;;5017856;28;20229;-95
2022/08/14 12:37:16;;;;;;;3.13;1.93;;;14.10;99.90;;;;;;5017840;28;20585;-94
2022/08/14 12:39:46;;;;;;;2.70;1.70;;;14.10;99.90;;;;;;5017896;28;20217;-95
2022/08/14 12:42:19;;;;;;;2.43;2.20;;;14.10;99.90;;;;;;5017972;28;20222;-95
2022/08/14 12:45:04;;;;;;;4.83;2.50;;;14.00;99.90;;;;;;5018773;28;20209;-95
2022/08/14 12:47:36;;;;;;;4.07;2.30;;;14.00;99.90;;;;;;5018861;28;20288;-95
2022/08/14 12:50:09;;;;;;;2.40;2.10;;;14.00;99.90;;;;;;5019002;28;20205;-95
2022/08/14 12:52:44;;;;;;;3.30;2.03;;;14.00;99.90;;;;;;5000246;28;20280;-95
2022/08/14 12:55:37;;;;;;;2.10;1.90;;;14.00;99.90;;;;;;5018174;28;20208;-94
2022/08/14 12:58:30;;;;;;;1.93;1.73;;;14.00;99.90;;;;;;5029804;28;20240;-94
2022/08/14 13:01:23;;;;;;;3.13;2.00;;;14.00;99.90;;;;;;5029683;28;20212;-94
2022/08/14 13:04:07;;;;;;;3.40;2.50;;;14.00;99.90;;;;;;5018864;28;20206;-95
2022/08/14 13:06:40;;;;;;;3.20;2.20;;;14.00;99.90;;;;;;5018223;28;20205;-95
2022/08/14 13:09:17;;;;;;;3.40;2.10;;;14.00;99.90;;;;;;5021972;28;20210;-93
2022/08/14 13:11:54;;;;;;;3.00;2.10;;;14.00;99.90;;;;;;5016862;28;20324;-94
2022/08/14 13:14:51;;;;;;;2.53;2.03;;;14.00;99.90;;;;;;5021643;28;20289;-94
2022/08/14 13:17:26;;;;;;;2.20;1.83;;;14.00;99.90;;;;;;5019252;28;20722;-95
2022/08/14 13:20:09;;;;;;;4.77;2.00;;;14.00;99.90;;;;;;5018255;28;20347;-94
2022/08/14 13:22:54;;;;;;;3.33;2.30;;;14.00;99.90;;;;;;4998662;28;20242;-94
2022/08/14 13:25:31;;;;;;;2.83;2.03;;;14.00;99.90;;;;;;5001126;28;20205;-94
2022/08/14 13:28:04;;;;;;;2.77;1.87;;;14.00;99.90;;;;;;4997252;28;20289;-94
2022/08/14 13:30:43;;;;;;;7.60;1.97;;;14.00;99.90;;;;;;4997857;28;20297;-94
2022/08/14 13:33:16;;;;;;;3.40;1.90;;;14.00;99.90;;;;;;4999189;28;20265;-93
2022/08/14 13:35:51;;;;;;;3.20;1.97;;;14.00;99.90;;;;;;4997838;28;20240;-95
2022/08/14 13:38:25;;;;;;;2.73;2.10;;;14.10;99.90;;;;;;4997120;28;20229;-95
2022/08/14 13:41:01;;;;;;;2.57;1.83;;;14.10;99.90;;;;;;4998968;28;20261;-94
2022/08/14 13:46:30;;;;;;;2.50;2.03;;;14.10;99.90;;;;;;5005636;28;20206;-94
2022/08/14 13:49:01;;;;;;;3.07;2.30;;;14.10;99.90;;;;;;5001808;28;20264;-94
2022/08/14 13:51:39;;;;;;;3.57;2.30;;;14.10;99.90;;;;;;5009512;28;20213;-94
2022/08/14 13:54:15;;;;;;;3.97;2.17;;;14.20;99.90;;;;;;5017528;28;20216;-94
2022/08/14 13:56:49;;;;;;;3.90;2.50;;;14.20;99.90;;;;;;5020708;28;20220;-94
2022/08/14 13:59:21;;;;;;;2.93;2.40;;;14.30;99.90;;;;;;5020966;28;20267;-93
2022/08/14 14:02:09;;;;;;;6.10;2.50;;;14.20;99.90;;;;;;5018131;28;20212;-94
2022/08/14 14:05:04;;;;;;;2.80;2.47;;;14.20;99.90;;;;;;5020406;28;20671;-94
2022/08/14 14:07:36;;;;;;;2.60;2.40;;;14.30;99.90;;;;;;5031548;28;20197;-93
2022/08/14 14:10:13;;;;;;;4.43;2.60;;;14.30;99.90;;;;;;5036328;28;20214;-94
2022/08/14 14:12:50;;;;;;;3.10;2.33;;;14.30;99.90;;;;;;5035678;28;20226;-94
2022/08/14 14:15:25;;;;;;;6.50;2.93;;;14.40;99.90;;;;;;5037184;28;20193;-94
2022/08/14 14:18:19;;;;;;;3.57;2.43;;;14.50;99.90;;;;;;5024273;28;20210;-93
2022/08/14 14:21:05;;;;;;;3.87;2.30;;;14.50;99.90;;;;;;5020774;28;20213;-93
2022/08/14 14:23:39;;;;;;;3.10;2.37;;;14.60;99.90;;;;;;5021656;28;20213;-93
2022/08/14 14:26:11;;;;;;;2.83;2.30;;;14.60;99.90;;;;;;5021496;28;20236;-94
2022/08/14 14:28:50;;;;;;;4.13;2.20;;;14.70;99.90;;;;;;5026004;28;20224;-93
2022/08/14 14:31:27;;;;;;;2.23;1.80;;;14.70;99.90;;;;;;5020486;28;20213;-95
2022/08/14 14:34:03;;;;;;;2.77;2.13;;;14.80;99.90;;;;;;5021490;28;20789;-94
2022/08/14 14:36:55;;;;;;;2.83;1.80;;;14.90;99.90;;;;;;5021097;28;20296;-94
2022/08/14 14:39:28;;;;;;;3.50;2.20;;;15.00;99.90;;;;;;5020764;28;20264;-93
2022/08/14 14:42:09;;;;;;;3.83;1.97;;;15.00;99.90;;;;;;5018859;28;20209;-94
2022/08/14 14:44:51;;;;;;;2.50;1.97;;;15.10;99.90;;;;;;5021562;28;20236;-94
2022/08/14 14:47:26;;;;;;;3.93;2.20;;;15.20;99.90;;;;;;5025965;28;20205;-94
2022/08/14 14:50:02;;;;;;;6.57;2.30;;;15.20;99.90;;;;;;5020483;28;20209;-94
2022/08/14 14:52:36;;;;;;;3.23;1.93;;;15.30;99.90;;;;;;5019551;28;20245;-93
2022/08/14 14:55:11;;;;;;;2.43;2.10;;;15.30;99.90;;;;;;5020465;28;20217;-95
2022/08/14 14:57:47;;;;;;;4.93;2.00;;;15.40;99.90;;;;;;5020643;28;20583;-93
2022/08/14 15:00:26;;;;;;;3.30;1.90;;;15.40;99.90;;;;;;5020434;28;20288;-94
2022/08/14 15:03:00;;;;;;;2.93;1.87;;;15.60;99.90;;;;;;5019618;28;20333;-94
2022/08/14 15:05:33;;;;;;;2.20;2.00;;;15.70;99.90;;;;;;5019901;28;20210;-95